sensor_id;sensor_type;location;lat;lon;timestamp;P1;durP1;ratioP1;P2;durP2;ratioP2
48795;SDS011;34607;48.520;-1.330;2023-04-03T07:18:30;15.30;;;12.85;;
48795;SDS011;34607;48.520;-1.330;2023-04-03T07:20:58;18.83;;;13.90;;
48795;SDS011;34607;48.520;-1.330;2023-04-03T07:23:25;15.77;;;12.98;;
48795;SDS011;34607;48.520;-1.330;2023-04-03T07:25:52;16.38;;;13.20;;
48795;SDS011;34607;48.520;-1.330;2023-04-03T07:28:20;16.13;;;13.30;;
48795;SDS011;34607;48.520;-1.330;2023-04-03T07:30:48;18.95;;;14.23;;
48795;SDS011;34607;48.520;-1.330;2023-04-03T07:33:17;15.77;;;13.95;;
48795;SDS011;34607;48.520;-1.330;2023-04-03T07:35:47;15.80;;;13.38;;
48795;SDS011;34607;48.520;-1.330;2023-04-03T07:38:14;16.00;;;13.95;;
48795;SDS011;34607;48.520;-1.330;2023-04-03T07:40:45;14.90;;;13.32;;
48795;SDS011;34607;48.520;-1.330;2023-04-03T07:43:13;16.35;;;13.80;;
48795;SDS011;34607;48.520;-1.330;2023-04-03T07:45:41;14.05;;;12.65;;
48795;SDS011;34607;48.520;-1.330;2023-04-03T07:48:08;19.27;;;13.63;;
48795;SDS011;34607;48.520;-1.330;2023-04-03T07:50:36;15.00;;;12.88;;
48795;SDS011;34607;48.520;-1.330;2023-04-03T07:53:05;16.95;;;15.13;;
48795;SDS011;34607;48.520;-1.330;2023-04-03T07:55:33;16.23;;;14.18;;
48795;SDS011;34607;48.520;-1.330;2023-04-03T07:58:05;21.35;;;17.38;;
48795;SDS011;34607;48.520;-1.330;2023-04-03T08:00:32;17.38;;;15.43;;
48795;SDS011;34607;48.520;-1.330;2023-04-03T08:02:59;16.75;;;14.98;;
48795;SDS011;34607;48.520;-1.330;2023-04-03T08:05:26;15.88;;;14.27;;
48795;SDS011;34607;48.520;-1.330;2023-04-03T08:07:53;16.95;;;14.77;;
48795;SDS011;34607;48.520;-1.330;2023-04-03T08:10:22;15.50;;;14.00;;
48795;SDS011;34607;48.520;-1.330;2023-04-03T08:12:49;15.30;;;13.75;;
48795;SDS011;34607;48.520;-1.330;2023-04-03T08:15:16;17.15;;;15.20;;
48795;SDS011;34607;48.520;-1.330;2023-04-03T08:17:43;15.48;;;13.88;;
48795;SDS011;34607;48.520;-1.330;2023-04-03T08:20:11;16.75;;;14.15;;
48795;SDS011;34607;48.520;-1.330;2023-04-03T08:22:38;18.27;;;14.85;;
48795;SDS011;34607;48.520;-1.330;2023-04-03T08:25:06;16.98;;;14.15;;
48795;SDS011;34607;48.520;-1.330;2023-04-03T08:27:34;16.90;;;14.00;;
48795;SDS011;34607;48.520;-1.330;2023-04-03T08:30:02;15.43;;;13.82;;
48795;SDS011;34607;48.520;-1.330;2023-04-03T08:32:30;17.20;;;15.45;;
48795;SDS011;34607;48.520;-1.330;2023-04-03T08:34:57;16.25;;;14.65;;
48795;SDS011;34607;48.520;-1.330;2023-04-03T08:37:24;16.27;;;14.23;;
48795;SDS011;34607;48.520;-1.330;2023-04-03T08:39:51;16.35;;;14.55;;
48795;SDS011;34607;48.520;-1.330;2023-04-03T08:42:20;16.58;;;14.82;;
48795;SDS011;34607;48.520;-1.330;2023-04-03T08:45:04;15.48;;;13.23;;
48795;SDS011;34607;48.520;-1.330;2023-04-03T08:47:38;19.35;;;13.82;;
48795;SDS011;34607;48.520;-1.330;2023-04-03T08:50:07;14.63;;;13.15;;
48795;SDS011;34607;48.520;-1.330;2023-04-03T08:52:40;16.13;;;14.02;;
48795;SDS011;34607;48.520;-1.330;2023-04-03T08:55:14;15.75;;;13.05;;
48795;SDS011;34607;48.520;-1.330;2023-04-03T08:57:48;15.43;;;12.48;;
48795;SDS011;34607;48.520;-1.330;2023-04-03T09:00:23;15.70;;;13.30;;
48795;SDS011;34607;48.520;-1.330;2023-04-03T09:02:54;13.80;;;12.50;;
48795;SDS011;34607;48.520;-1.330;2023-04-03T09:05:26;15.18;;;13.23;;
48795;SDS011;34607;48.520;-1.330;2023-04-03T09:08:04;14.48;;;12.50;;
48795;SDS011;34607;48.520;-1.330;2023-04-03T09:10:39;22.80;;;18.25;;
48795;SDS011;34607;48.520;-1.330;2023-04-03T09:13:09;13.48;;;11.70;;
48795;SDS011;34607;48.520;-1.330;2023-04-03T09:15:46;13.27;;;11.88;;
48795;SDS011;34607;48.520;-1.330;2023-04-03T09:18:15;14.52;;;13.02;;
48795;SDS011;34607;48.520;-1.330;2023-04-03T09:20:49;14.65;;;13.15;;
48795;SDS011;34607;48.520;-1.330;2023-04-03T09:23:26;15.20;;;13.60;;
48795;SDS011;34607;48.520;-1.330;2023-04-03T09:26:00;13.82;;;12.43;;
48795;SDS011;34607;48.520;-1.330;2023-04-03T09:28:31;15.93;;;13.33;;
48795;SDS011;34607;48.520;-1.330;2023-04-03T09:31:05;15.93;;;12.45;;
48795;SDS011;34607;48.520;-1.330;2023-04-03T09:33:45;14.65;;;13.05;;
48795;SDS011;34607;48.520;-1.330;2023-04-03T09:36:13;14.60;;;13.10;;
48795;SDS011;34607;48.520;-1.330;2023-04-03T09:38:40;14.32;;;12.93;;
48795;SDS011;34607;48.520;-1.330;2023-04-03T09:41:10;14.35;;;12.85;;
48795;SDS011;34607;48.520;-1.330;2023-04-03T09:43:51;15.18;;;13.38;;
48795;SDS011;34607;48.520;-1.330;2023-04-03T09:46:28;14.38;;;12.88;;
48795;SDS011;34607;48.520;-1.330;2023-04-03T09:48:58;15.80;;;12.98;;
48795;SDS011;34607;48.520;-1.330;2023-04-03T09:51:26;14.60;;;13.20;;
48795;SDS011;34607;48.520;-1.330;2023-04-03T09:53:55;14.35;;;12.95;;
48795;SDS011;34607;48.520;-1.330;2023-04-03T09:56:23;16.48;;;12.27;;
48795;SDS011;34607;48.520;-1.330;2023-04-03T09:58:52;13.00;;;11.65;;
48795;SDS011;34607;48.520;-1.330;2023-04-03T10:01:35;17.08;;;13.65;;
48795;SDS011;34607;48.520;-1.330;2023-04-03T10:04:06;14.50;;;13.00;;
48795;SDS011;34607;48.520;-1.330;2023-04-03T10:06:36;15.35;;;13.88;;
48795;SDS011;34607;48.520;-1.330;2023-04-03T10:09:12;14.38;;;12.98;;
48795;SDS011;34607;48.520;-1.330;2023-04-03T10:11:57;14.13;;;12.73;;
48795;SDS011;34607;48.520;-1.330;2023-04-03T10:14:26;15.82;;;14.15;;
48795;SDS011;34607;48.520;-1.330;2023-04-03T10:16:56;14.10;;;12.70;;
48795;SDS011;34607;48.520;-1.330;2023-04-03T10:19:32;14.80;;;12.98;;
48795;SDS011;34607;48.520;-1.330;2023-04-03T10:22:04;14.47;;;12.97;;
48795;SDS011;34607;48.520;-1.330;2023-04-03T10:24:44;16.73;;;14.88;;
48795;SDS011;34607;48.520;-1.330;2023-04-03T10:27:18;14.30;;;12.80;;
48795;SDS011;34607;48.520;-1.330;2023-04-03T10:29:55;14.40;;;13.00;;
48795;SDS011;34607;48.520;-1.330;2023-04-03T10:32:39;14.68;;;13.18;;
48795;SDS011;34607;48.520;-1.330;2023-04-03T10:35:16;14.60;;;13.18;;
48795;SDS011;34607;48.520;-1.330;2023-04-03T10:38:03;14.65;;;13.23;;
48795;SDS011;34607;48.520;-1.330;2023-04-03T10:40:37;15.43;;;13.93;;
48795;SDS011;34607;48.520;-1.330;2023-04-03T10:43:14;14.90;;;13.40;;
48795;SDS011;34607;48.520;-1.330;2023-04-03T10:45:49;14.15;;;12.68;;
48795;SDS011;34607;48.520;-1.330;2023-04-03T10:48:25;14.90;;;13.40;;
48795;SDS011;34607;48.520;-1.330;2023-04-03T10:51:05;14.00;;;12.57;;
48795;SDS011;34607;48.520;-1.330;2023-04-03T10:53:42;14.95;;;13.27;;
48795;SDS011;34607;48.520;-1.330;2023-04-03T10:56:18;12.45;;;11.15;;
48795;SDS011;34607;48.520;-1.330;2023-04-03T10:58:55;14.73;;;13.23;;
48795;SDS011;34607;48.520;-1.330;2023-04-03T11:01:26;13.50;;;12.23;;
48795;SDS011;34607;48.520;-1.330;2023-04-03T11:04:00;15.07;;;12.98;;
48795;SDS011;34607;48.520;-1.330;2023-04-03T11:06:31;13.75;;;12.55;;
48795;SDS011;34607;48.520;-1.330;2023-04-03T11:09:05;13.43;;;12.13;;
48795;SDS011;34607;48.520;-1.330;2023-04-03T11:11:42;14.35;;;12.43;;
48795;SDS011;34607;48.520;-1.330;2023-04-03T11:14:10;14.82;;;12.65;;
48795;SDS011;34607;48.520;-1.330;2023-04-03T11:16:45;13.32;;;11.98;;
48795;SDS011;34607;48.520;-1.330;2023-04-03T11:19:17;13.60;;;11.85;;
48795;SDS011;34607;48.520;-1.330;2023-04-03T11:21:51;14.52;;;13.07;;
48795;SDS011;34607;48.520;-1.330;2023-04-03T11:24:25;12.82;;;11.73;;
48795;SDS011;34607;48.520;-1.330;2023-04-03T11:26:55;13.32;;;11.93;;
48795;SDS011;34607;48.520;-1.330;2023-04-03T11:29:26;13.82;;;12.27;;
48795;SDS011;34607;48.520;-1.330;2023-04-03T11:32:03;13.10;;;11.90;;
48795;SDS011;34607;48.520;-1.330;2023-04-03T11:34:40;12.55;;;11.32;;
48795;SDS011;34607;48.520;-1.330;2023-04-03T11:37:12;12.55;;;11.25;;
48795;SDS011;34607;48.520;-1.330;2023-04-03T11:39:51;11.85;;;10.63;;
48795;SDS011;34607;48.520;-1.330;2023-04-03T11:42:24;12.57;;;10.60;;
48795;SDS011;34607;48.520;-1.330;2023-04-03T11:45:16;11.85;;;10.55;;
48795;SDS011;34607;48.520;-1.330;2023-04-03T11:47:52;13.07;;;11.13;;
48795;SDS011;34607;48.520;-1.330;2023-04-03T11:50:40;12.50;;;11.43;;
48795;SDS011;34607;48.520;-1.330;2023-04-03T11:53:25;11.65;;;10.52;;
48795;SDS011;34607;48.520;-1.330;2023-04-03T11:55:55;11.38;;;10.30;;
48795;SDS011;34607;48.520;-1.330;2023-04-03T11:58:30;15.30;;;11.77;;
48795;SDS011;34607;48.520;-1.330;2023-04-03T12:01:00;12.07;;;10.90;;
48795;SDS011;34607;48.520;-1.330;2023-04-03T12:03:33;11.70;;;10.40;;
48795;SDS011;34607;48.520;-1.330;2023-04-03T12:09:31;11.57;;;9.65;;
48795;SDS011;34607;48.520;-1.330;2023-04-03T12:12:01;10.77;;;9.77;;
48795;SDS011;34607;48.520;-1.330;2023-04-03T12:14:50;13.40;;;11.90;;
48795;SDS011;34607;48.520;-1.330;2023-04-03T12:17:20;11.15;;;10.10;;
48795;SDS011;34607;48.520;-1.330;2023-04-03T12:19:51;12.68;;;11.25;;
48795;SDS011;34607;48.520;-1.330;2023-04-03T12:22:19;11.32;;;10.20;;
48795;SDS011;34607;48.520;-1.330;2023-04-03T12:24:50;11.80;;;10.73;;
48795;SDS011;34607;48.520;-1.330;2023-04-03T12:27:23;10.88;;;9.73;;
48795;SDS011;34607;48.520;-1.330;2023-04-03T12:29:58;11.15;;;10.13;;
48795;SDS011;34607;48.520;-1.330;2023-04-03T12:32:54;10.68;;;9.63;;
48795;SDS011;34607;48.520;-1.330;2023-04-03T12:35:43;13.90;;;11.27;;
48795;SDS011;34607;48.520;-1.330;2023-04-03T12:38:22;11.15;;;10.02;;
48795;SDS011;34607;48.520;-1.330;2023-04-03T12:41:08;11.18;;;10.18;;
48795;SDS011;34607;48.520;-1.330;2023-04-03T12:43:47;11.40;;;10.40;;
48795;SDS011;34607;48.520;-1.330;2023-04-03T12:46:23;9.95;;;8.95;;
48795;SDS011;34607;48.520;-1.330;2023-04-03T12:48:56;13.02;;;10.60;;
48795;SDS011;34607;48.520;-1.330;2023-04-03T12:51:26;10.90;;;9.90;;
48795;SDS011;34607;48.520;-1.330;2023-04-03T12:54:02;10.27;;;9.27;;
48795;SDS011;34607;48.520;-1.330;2023-04-03T12:56:40;11.13;;;10.13;;
48795;SDS011;34607;48.520;-1.330;2023-04-03T12:59:14;11.43;;;10.25;;
48795;SDS011;34607;48.520;-1.330;2023-04-03T13:01:42;10.65;;;9.70;;
48795;SDS011;34607;48.520;-1.330;2023-04-03T13:04:10;10.40;;;9.40;;
48795;SDS011;34607;48.520;-1.330;2023-04-03T13:06:39;10.32;;;9.43;;
48795;SDS011;34607;48.520;-1.330;2023-04-03T13:09:17;10.68;;;9.70;;
48795;SDS011;34607;48.520;-1.330;2023-04-03T13:11:48;11.35;;;10.32;;
48795;SDS011;34607;48.520;-1.330;2023-04-03T13:14:17;10.85;;;9.95;;
48795;SDS011;34607;48.520;-1.330;2023-04-03T13:16:52;11.35;;;10.20;;
48795;SDS011;34607;48.520;-1.330;2023-04-03T13:19:20;10.95;;;9.93;;
48795;SDS011;34607;48.520;-1.330;2023-04-03T13:21:49;12.52;;;10.63;;
48795;SDS011;34607;48.520;-1.330;2023-04-03T13:24:23;10.25;;;9.20;;
48795;SDS011;34607;48.520;-1.330;2023-04-03T13:26:52;10.82;;;9.93;;
48795;SDS011;34607;48.520;-1.330;2023-04-03T13:29:22;11.35;;;9.98;;
48795;SDS011;34607;48.520;-1.330;2023-04-03T13:31:53;11.25;;;10.25;;
48795;SDS011;34607;48.520;-1.330;2023-04-03T13:34:22;11.20;;;10.20;;
48795;SDS011;34607;48.520;-1.330;2023-04-03T13:36:55;10.52;;;9.63;;
48795;SDS011;34607;48.520;-1.330;2023-04-03T13:39:25;10.82;;;9.80;;
48795;SDS011;34607;48.520;-1.330;2023-04-03T13:41:57;11.55;;;10.32;;
48795;SDS011;34607;48.520;-1.330;2023-04-03T13:44:28;11.13;;;10.05;;
48795;SDS011;34607;48.520;-1.330;2023-04-03T13:46:58;10.70;;;9.80;;
48795;SDS011;34607;48.520;-1.330;2023-04-03T13:49:29;10.80;;;9.82;;
48795;SDS011;34607;48.520;-1.330;2023-04-03T13:51:59;10.23;;;9.25;;
48795;SDS011;34607;48.520;-1.330;2023-04-03T13:54:29;10.25;;;9.32;;
48795;SDS011;34607;48.520;-1.330;2023-04-03T13:57:00;9.48;;;8.48;;
48795;SDS011;34607;48.520;-1.330;2023-04-03T13:59:29;10.13;;;9.05;;
48795;SDS011;34607;48.520;-1.330;2023-04-03T14:02:09;9.38;;;8.35;;
48795;SDS011;34607;48.520;-1.330;2023-04-03T14:04:45;8.38;;;7.68;;
48795;SDS011;34607;48.520;-1.330;2023-04-03T14:07:16;8.27;;;7.47;;
48795;SDS011;34607;48.520;-1.330;2023-04-03T14:09:45;9.63;;;8.63;;
48795;SDS011;34607;48.520;-1.330;2023-04-03T14:12:14;8.82;;;8.10;;
48795;SDS011;34607;48.520;-1.330;2023-04-03T14:14:44;7.95;;;7.25;;
48795;SDS011;34607;48.520;-1.330;2023-04-03T14:17:14;10.48;;;8.52;;
48795;SDS011;34607;48.520;-1.330;2023-04-03T14:19:42;7.63;;;6.90;;
48795;SDS011;34607;48.520;-1.330;2023-04-03T14:22:12;8.27;;;7.53;;
48795;SDS011;34607;48.520;-1.330;2023-04-03T14:24:41;8.82;;;8.02;;
48795;SDS011;34607;48.520;-1.330;2023-04-03T14:27:11;7.45;;;6.72;;
48795;SDS011;34607;48.520;-1.330;2023-04-03T14:29:44;7.68;;;6.97;;
48795;SDS011;34607;48.520;-1.330;2023-04-03T14:32:12;8.80;;;7.70;;
48795;SDS011;34607;48.520;-1.330;2023-04-03T14:34:40;8.68;;;7.97;;
48795;SDS011;34607;48.520;-1.330;2023-04-03T14:37:09;8.55;;;7.75;;
48795;SDS011;34607;48.520;-1.330;2023-04-03T14:39:36;9.02;;;7.68;;
48795;SDS011;34607;48.520;-1.330;2023-04-03T14:42:04;9.13;;;8.23;;
48795;SDS011;34607;48.520;-1.330;2023-04-03T14:44:32;9.63;;;8.63;;
48795;SDS011;34607;48.520;-1.330;2023-04-03T14:46:59;8.70;;;8.00;;
48795;SDS011;34607;48.520;-1.330;2023-04-03T14:49:27;9.40;;;8.50;;
48795;SDS011;34607;48.520;-1.330;2023-04-03T14:51:55;9.60;;;8.80;;
48795;SDS011;34607;48.520;-1.330;2023-04-03T14:54:22;9.93;;;9.02;;
48795;SDS011;34607;48.520;-1.330;2023-04-03T14:56:53;10.38;;;9.45;;
48795;SDS011;34607;48.520;-1.330;2023-04-03T14:59:21;9.60;;;8.80;;
48795;SDS011;34607;48.520;-1.330;2023-04-03T15:01:50;10.55;;;9.52;;
48795;SDS011;34607;48.520;-1.330;2023-04-03T15:04:18;10.93;;;10.02;;
48795;SDS011;34607;48.520;-1.330;2023-04-03T15:06:47;9.27;;;8.57;;
48795;SDS011;34607;48.520;-1.330;2023-04-03T15:09:18;11.38;;;10.30;;
48795;SDS011;34607;48.520;-1.330;2023-04-03T15:11:47;11.10;;;9.55;;
48795;SDS011;34607;48.520;-1.330;2023-04-03T15:14:14;10.07;;;9.13;;
48795;SDS011;34607;48.520;-1.330;2023-04-03T15:16:41;12.18;;;11.07;;
48795;SDS011;34607;48.520;-1.330;2023-04-03T15:19:10;11.07;;;9.98;;
48795;SDS011;34607;48.520;-1.330;2023-04-03T15:21:38;11.38;;;10.32;;
48795;SDS011;34607;48.520;-1.330;2023-04-03T15:24:06;11.05;;;10.05;;
48795;SDS011;34607;48.520;-1.330;2023-04-03T15:26:33;12.05;;;10.90;;
48795;SDS011;34607;48.520;-1.330;2023-04-03T15:29:00;12.70;;;11.52;;
48795;SDS011;34607;48.520;-1.330;2023-04-03T15:31:27;13.43;;;12.15;;
48795;SDS011;34607;48.520;-1.330;2023-04-03T15:33:54;13.93;;;12.73;;
48795;SDS011;34607;48.520;-1.330;2023-04-03T15:36:23;11.90;;;10.77;;
48795;SDS011;34607;48.520;-1.330;2023-04-03T15:38:50;13.25;;;12.02;;
48795;SDS011;34607;48.520;-1.330;2023-04-03T15:41:17;12.82;;;11.77;;
48795;SDS011;34607;48.520;-1.330;2023-04-03T15:43:44;12.68;;;11.57;;
48795;SDS011;34607;48.520;-1.330;2023-04-03T15:46:11;13.70;;;12.40;;
48795;SDS011;34607;48.520;-1.330;2023-04-03T15:48:40;14.40;;;12.98;;
48795;SDS011;34607;48.520;-1.330;2023-04-03T15:51:07;14.10;;;12.60;;
48795;SDS011;34607;48.520;-1.330;2023-04-03T15:53:35;13.75;;;12.55;;
48795;SDS011;34607;48.520;-1.330;2023-04-03T15:56:02;13.40;;;12.00;;
48795;SDS011;34607;48.520;-1.330;2023-04-03T15:58:30;13.95;;;12.48;;
48795;SDS011;34607;48.520;-1.330;2023-04-03T16:00:57;13.43;;;12.02;;
48795;SDS011;34607;48.520;-1.330;2023-04-03T16:03:24;13.90;;;11.50;;
48795;SDS011;34607;48.520;-1.330;2023-04-03T16:05:51;14.25;;;12.85;;
48795;SDS011;34607;48.520;-1.330;2023-04-03T16:08:19;13.88;;;12.57;;
48795;SDS011;34607;48.520;-1.330;2023-04-03T16:10:47;12.68;;;11.45;;
48795;SDS011;34607;48.520;-1.330;2023-04-03T16:13:15;14.82;;;13.52;;
48795;SDS011;34607;48.520;-1.330;2023-04-03T16:15:42;13.40;;;12.20;;
48795;SDS011;34607;48.520;-1.330;2023-04-03T16:18:09;14.13;;;12.68;;
48795;SDS011;34607;48.520;-1.330;2023-04-03T16:20:38;14.27;;;12.95;;
48795;SDS011;34607;48.520;-1.330;2023-04-03T16:23:05;13.98;;;12.73;;
48795;SDS011;34607;48.520;-1.330;2023-04-03T16:25:33;12.98;;;11.85;;
48795;SDS011;34607;48.520;-1.330;2023-04-03T16:28:01;14.80;;;13.43;;
48795;SDS011;34607;48.520;-1.330;2023-04-03T16:30:28;14.48;;;12.88;;
48795;SDS011;34607;48.520;-1.330;2023-04-03T16:32:56;14.38;;;12.80;;
48795;SDS011;34607;48.520;-1.330;2023-04-03T16:35:23;13.75;;;12.55;;
48795;SDS011;34607;48.520;-1.330;2023-04-03T16:37:50;14.20;;;12.88;;
48795;SDS011;34607;48.520;-1.330;2023-04-03T16:40:17;16.52;;;13.23;;
48795;SDS011;34607;48.520;-1.330;2023-04-03T16:42:44;14.90;;;13.18;;
48795;SDS011;34607;48.520;-1.330;2023-04-03T16:45:13;14.68;;;13.25;;
48795;SDS011;34607;48.520;-1.330;2023-04-03T16:47:40;15.70;;;14.30;;
48795;SDS011;34607;48.520;-1.330;2023-04-03T16:50:08;16.65;;;13.40;;
48795;SDS011;34607;48.520;-1.330;2023-04-03T16:52:35;16.23;;;14.55;;
48795;SDS011;34607;48.520;-1.330;2023-04-03T16:55:02;14.82;;;13.43;;
48795;SDS011;34607;48.520;-1.330;2023-04-03T16:57:30;15.65;;;13.98;;
48795;SDS011;34607;48.520;-1.330;2023-04-03T16:59:57;15.60;;;14.07;;
48795;SDS011;34607;48.520;-1.330;2023-04-03T17:02:26;15.90;;;14.13;;
48795;SDS011;34607;48.520;-1.330;2023-04-03T17:04:53;15.35;;;13.95;;
48795;SDS011;34607;48.520;-1.330;2023-04-03T17:07:21;15.13;;;13.57;;
48795;SDS011;34607;48.520;-1.330;2023-04-03T17:09:49;16.63;;;15.07;;
48795;SDS011;34607;48.520;-1.330;2023-04-03T17:12:18;15.55;;;14.00;;
48795;SDS011;34607;48.520;-1.330;2023-04-03T17:14:46;15.38;;;13.85;;
48795;SDS011;34607;48.520;-1.330;2023-04-03T17:17:13;18.15;;;14.57;;
48795;SDS011;34607;48.520;-1.330;2023-04-03T17:19:42;16.17;;;14.77;;
48795;SDS011;34607;48.520;-1.330;2023-04-03T17:22:10;16.15;;;14.65;;
48795;SDS011;34607;48.520;-1.330;2023-04-03T17:24:37;15.43;;;13.93;;
48795;SDS011;34607;48.520;-1.330;2023-04-03T17:27:04;16.80;;;14.85;;
48795;SDS011;34607;48.520;-1.330;2023-04-03T17:29:31;15.38;;;13.98;;
48795;SDS011;34607;48.520;-1.330;2023-04-03T17:31:58;16.52;;;14.88;;
48795;SDS011;34607;48.520;-1.330;2023-04-03T17:34:25;15.98;;;14.48;;
48795;SDS011;34607;48.520;-1.330;2023-04-03T17:36:53;16.70;;;15.02;;
48795;SDS011;34607;48.520;-1.330;2023-04-03T17:39:20;16.27;;;14.57;;
48795;SDS011;34607;48.520;-1.330;2023-04-03T17:41:48;16.58;;;14.98;;
48795;SDS011;34607;48.520;-1.330;2023-04-03T17:44:15;17.25;;;15.55;;
48795;SDS011;34607;48.520;-1.330;2023-04-03T17:46:42;17.38;;;15.57;;
48795;SDS011;34607;48.520;-1.330;2023-04-03T17:49:09;18.27;;;16.00;;
48795;SDS011;34607;48.520;-1.330;2023-04-03T17:51:39;17.55;;;15.70;;
48795;SDS011;34607;48.520;-1.330;2023-04-03T17:54:08;17.15;;;15.48;;
48795;SDS011;34607;48.520;-1.330;2023-04-03T17:56:35;17.80;;;16.02;;
48795;SDS011;34607;48.520;-1.330;2023-04-03T17:59:02;17.23;;;15.60;;
48795;SDS011;34607;48.520;-1.330;2023-04-03T18:01:30;18.35;;;16.55;;
48795;SDS011;34607;48.520;-1.330;2023-04-03T18:04:00;19.20;;;17.13;;
48795;SDS011;34607;48.520;-1.330;2023-04-03T18:06:29;18.75;;;16.90;;
48795;SDS011;34607;48.520;-1.330;2023-04-03T18:09:00;19.38;;;17.20;;
48795;SDS011;34607;48.520;-1.330;2023-04-03T18:11:32;18.33;;;16.40;;
48795;SDS011;34607;48.520;-1.330;2023-04-03T18:14:00;17.13;;;15.50;;
48795;SDS011;34607;48.520;-1.330;2023-04-03T18:16:29;18.77;;;16.77;;
48795;SDS011;34607;48.520;-1.330;2023-04-03T18:18:56;18.40;;;16.52;;
48795;SDS011;34607;48.520;-1.330;2023-04-03T18:21:23;18.52;;;16.27;;
48795;SDS011;34607;48.520;-1.330;2023-04-03T18:23:51;20.25;;;18.23;;
48795;SDS011;34607;48.520;-1.330;2023-04-03T18:26:20;19.67;;;17.63;;
48795;SDS011;34607;48.520;-1.330;2023-04-03T18:28:54;18.00;;;16.23;;
48795;SDS011;34607;48.520;-1.330;2023-04-03T18:31:24;19.67;;;17.17;;
48795;SDS011;34607;48.520;-1.330;2023-04-03T18:33:53;19.65;;;17.20;;
48795;SDS011;34607;48.520;-1.330;2023-04-03T18:36:23;22.20;;;17.40;;
48795;SDS011;34607;48.520;-1.330;2023-04-03T18:38:51;21.13;;;17.27;;
48795;SDS011;34607;48.520;-1.330;2023-04-03T18:41:18;19.27;;;16.88;;
48795;SDS011;34607;48.520;-1.330;2023-04-03T18:43:47;18.60;;;16.60;;
48795;SDS011;34607;48.520;-1.330;2023-04-03T18:46:16;19.70;;;17.65;;
48795;SDS011;34607;48.520;-1.330;2023-04-03T18:48:43;25.25;;;19.15;;
48795;SDS011;34607;48.520;-1.330;2023-04-03T18:51:11;20.73;;;18.23;;
48795;SDS011;34607;48.520;-1.330;2023-04-03T18:53:39;22.45;;;19.13;;
48795;SDS011;34607;48.520;-1.330;2023-04-03T18:56:06;20.58;;;18.48;;
48795;SDS011;34607;48.520;-1.330;2023-04-03T18:58:34;22.35;;;19.95;;
48795;SDS011;34607;48.520;-1.330;2023-04-03T19:01:01;22.13;;;19.92;;
48795;SDS011;34607;48.520;-1.330;2023-04-03T19:03:30;23.13;;;19.92;;
48795;SDS011;34607;48.520;-1.330;2023-04-03T19:05:59;22.42;;;18.80;;
48795;SDS011;34607;48.520;-1.330;2023-04-03T19:08:27;23.20;;;19.58;;
48795;SDS011;34607;48.520;-1.330;2023-04-03T19:10:54;26.60;;;20.67;;
48795;SDS011;34607;48.520;-1.330;2023-04-03T19:13:21;23.10;;;19.83;;
48795;SDS011;34607;48.520;-1.330;2023-04-03T19:15:48;25.90;;;21.13;;
48795;SDS011;34607;48.520;-1.330;2023-04-03T19:18:16;23.90;;;19.58;;
48795;SDS011;34607;48.520;-1.330;2023-04-03T19:20:45;21.50;;;19.20;;
48795;SDS011;34607;48.520;-1.330;2023-04-03T19:23:12;22.38;;;19.73;;
48795;SDS011;34607;48.520;-1.330;2023-04-03T19:25:39;24.05;;;20.33;;
48795;SDS011;34607;48.520;-1.330;2023-04-03T19:28:06;21.38;;;18.45;;
48795;SDS011;34607;48.520;-1.330;2023-04-03T19:30:35;20.73;;;18.52;;
48795;SDS011;34607;48.520;-1.330;2023-04-03T19:33:03;20.17;;;18.02;;
48795;SDS011;34607;48.520;-1.330;2023-04-03T19:35:30;22.40;;;17.75;;
48795;SDS011;34607;48.520;-1.330;2023-04-03T19:37:59;19.88;;;17.75;;
48795;SDS011;34607;48.520;-1.330;2023-04-03T19:40:27;19.67;;;17.65;;
48795;SDS011;34607;48.520;-1.330;2023-04-03T19:42:56;19.23;;;17.25;;
48795;SDS011;34607;48.520;-1.330;2023-04-03T19:45:24;18.00;;;15.90;;
48795;SDS011;34607;48.520;-1.330;2023-04-03T19:47:52;19.13;;;15.80;;
48795;SDS011;34607;48.520;-1.330;2023-04-03T19:50:19;17.83;;;15.95;;
48795;SDS011;34607;48.520;-1.330;2023-04-03T19:52:46;17.10;;;15.43;;
48795;SDS011;34607;48.520;-1.330;2023-04-03T19:55:15;19.70;;;15.55;;
48795;SDS011;34607;48.520;-1.330;2023-04-03T19:57:42;18.52;;;15.95;;
48795;SDS011;34607;48.520;-1.330;2023-04-03T20:00:09;17.52;;;15.50;;
48795;SDS011;34607;48.520;-1.330;2023-04-03T20:02:37;18.33;;;15.07;;
48795;SDS011;34607;48.520;-1.330;2023-04-03T20:05:05;17.60;;;14.98;;
48795;SDS011;34607;48.520;-1.330;2023-04-03T20:07:33;16.33;;;14.63;;
48795;SDS011;34607;48.520;-1.330;2023-04-03T20:10:00;15.52;;;13.93;;
48795;SDS011;34607;48.520;-1.330;2023-04-03T20:12:28;18.13;;;15.00;;
48795;SDS011;34607;48.520;-1.330;2023-04-03T20:14:55;15.38;;;13.50;;
48795;SDS011;34607;48.520;-1.330;2023-04-03T20:17:22;15.40;;;13.88;;
48795;SDS011;34607;48.520;-1.330;2023-04-03T20:19:49;16.00;;;13.52;;
48795;SDS011;34607;48.520;-1.330;2023-04-03T20:22:16;15.77;;;14.27;;
48795;SDS011;34607;48.520;-1.330;2023-04-03T20:24:43;14.77;;;12.77;;
48795;SDS011;34607;48.520;-1.330;2023-04-03T20:27:11;15.20;;;13.60;;
48795;SDS011;34607;48.520;-1.330;2023-04-03T20:29:40;14.27;;;12.88;;
48795;SDS011;34607;48.520;-1.330;2023-04-03T20:32:07;14.20;;;12.80;;
48795;SDS011;34607;48.520;-1.330;2023-04-03T20:34:36;13.80;;;12.18;;
48795;SDS011;34607;48.520;-1.330;2023-04-03T20:37:03;14.88;;;12.88;;
48795;SDS011;34607;48.520;-1.330;2023-04-03T20:39:31;13.68;;;12.38;;
48795;SDS011;34607;48.520;-1.330;2023-04-03T20:41:58;15.93;;;12.60;;
48795;SDS011;34607;48.520;-1.330;2023-04-03T20:44:25;14.10;;;11.82;;
48795;SDS011;34607;48.520;-1.330;2023-04-03T20:46:53;12.55;;;11.32;;
48795;SDS011;34607;48.520;-1.330;2023-04-03T20:49:21;14.23;;;12.05;;
48795;SDS011;34607;48.520;-1.330;2023-04-03T20:51:49;13.15;;;11.90;;
48795;SDS011;34607;48.520;-1.330;2023-04-03T20:54:16;14.40;;;11.27;;
48795;SDS011;34607;48.520;-1.330;2023-04-03T20:56:44;13.80;;;12.07;;
48795;SDS011;34607;48.520;-1.330;2023-04-03T20:59:13;12.15;;;10.70;;
48795;SDS011;34607;48.520;-1.330;2023-04-03T21:01:41;11.82;;;10.35;;
48795;SDS011;34607;48.520;-1.330;2023-04-03T21:04:12;12.00;;;10.63;;
48795;SDS011;34607;48.520;-1.330;2023-04-03T21:21:23;11.98;;;9.77;;
48795;SDS011;34607;48.520;-1.330;2023-04-03T21:23:51;11.35;;;10.15;;
48795;SDS011;34607;48.520;-1.330;2023-04-03T21:26:19;10.18;;;9.18;;
48795;SDS011;34607;48.520;-1.330;2023-04-03T21:28:49;16.45;;;10.23;;
48795;SDS011;34607;48.520;-1.330;2023-04-03T21:31:17;14.60;;;10.38;;
48795;SDS011;34607;48.520;-1.330;2023-04-03T21:33:45;11.48;;;8.77;;
48795;SDS011;34607;48.520;-1.330;2023-04-03T21:36:12;9.88;;;8.85;;
48795;SDS011;34607;48.520;-1.330;2023-04-03T21:38:39;10.90;;;9.30;;
48795;SDS011;34607;48.520;-1.330;2023-04-03T21:41:06;10.63;;;8.98;;
48795;SDS011;34607;48.520;-1.330;2023-04-03T21:43:33;9.98;;;8.98;;
48795;SDS011;34607;48.520;-1.330;2023-04-03T21:46:00;9.18;;;8.30;;
48795;SDS011;34607;48.520;-1.330;2023-04-03T21:48:29;11.02;;;8.85;;
